Time;durP1;ratioP1;P1;durP2;ratioP2;P2;SDS_P1;SDS_P2;PMS_P1;PMS_P2;Temp;Humidity;BMP_temperature;BMP_pressure;BME280_temperature;BME280_humidity;BME280_pressure;Samples;Min_cycle;Max_cycle;Signal;HPM_P1;HPM_P2
2022/09/11 00:01:46;;;;;;;;;;;13.50;99.90;;;;;;5055985;28;19951;-32
2022/09/11 00:04:11;;;;;;;;;;;13.40;99.90;;;;;;5055362;28;19966;-33
2022/09/11 00:06:37;;;;;;;;;;;13.40;99.90;;;;;;5055830;28;19924;-34
2022/09/11 00:09:04;;;;;;;;;;;13.40;99.90;;;;;;5055414;28;19920;-34
2022/09/11 00:11:32;;;;;;;;;;;13.30;99.90;;;;;;5055246;28;19924;-34
2022/09/11 00:13:58;;;;;;;;;;;13.30;99.90;;;;;;5053420;28;20395;-34
2022/09/11 00:16:28;;;;;;;;;;;13.30;99.90;;;;;;5054335;28;20018;-32
2022/09/11 00:18:55;;;;;;;;;;;13.30;99.90;;;;;;5056028;28;19990;-32
2022/09/11 00:21:21;;;;;;;;;;;13.30;99.90;;;;;;5039880;28;19917;-33
2022/09/11 00:23:49;;;;;;;;;;;13.30;99.90;;;;;;5055856;28;19922;-34
2022/09/11 00:26:16;;;;;;;;;;;13.30;99.90;;;;;;5057712;28;19922;-34
2022/09/11 00:28:42;;;;;;;;;;;13.30;99.90;;;;;;5064241;28;19921;-34
2022/09/11 00:31:12;;;;;;;;;;;13.30;99.90;;;;;;5056647;28;19920;-35
2022/09/11 00:33:38;;;;;;;;;;;13.30;99.90;;;;;;5055513;28;19975;-34
2022/09/11 00:36:11;;;;;;;;;;;13.30;99.90;;;;;;5068303;28;19952;-36
2022/09/11 00:38:37;;;;;;;;;;;13.30;99.90;;;;;;5054207;28;19941;-34
2022/09/11 00:41:05;;;;;;;;;;;13.20;99.90;;;;;;5055050;28;20288;-34
2022/09/11 00:43:49;;;;;;;;;;;13.30;99.90;;;;;;5054954;28;19916;-33
2022/09/11 00:46:15;;;;;;;;;;;13.30;99.90;;;;;;5054677;28;19916;-34
2022/09/11 00:48:41;;;;;;;;;;;13.30;99.90;;;;;;5054578;28;19927;-32
2022/09/11 00:51:06;;;;;;;;;;;13.30;99.90;;;;;;5054608;28;19916;-37
2022/09/11 00:53:34;;;;;;;;;;;13.20;99.90;;;;;;5056278;28;20417;-32
2022/09/11 00:56:02;;;;;;;;;;;13.20;99.90;;;;;;5056555;28;19916;-34
2022/09/11 00:58:31;;;;;;;;;;;13.20;99.90;;;;;;5024041;28;20207;-33
2022/09/11 01:00:56;;;;;;;;;;;13.20;99.90;;;;;;5056046;28;19923;-34
2022/09/11 01:03:24;;;;;;;;;;;13.10;99.90;;;;;;5054434;28;20006;-34
2022/09/11 01:05:51;;;;;;;;;;;13.10;99.90;;;;;;5055782;28;20285;-33
2022/09/11 01:08:17;;;;;;;;;;;13.10;99.90;;;;;;5054656;28;19988;-33
2022/09/11 01:11:01;;;;;;;;;;;13.10;99.90;;;;;;5053942;28;19924;-36
2022/09/11 01:13:33;;;;;;;;;;;13.10;99.90;;;;;;5053215;28;20357;-34
2022/09/11 01:16:04;;;;;;;;;;;13.10;99.90;;;;;;5054154;28;19923;-32
2022/09/11 01:18:33;;;;;;;;;;;13.10;99.90;;;;;;5054492;28;20246;-33
2022/09/11 01:20:59;;;;;;;;;;;13.00;99.90;;;;;;5055726;28;19916;-33
2022/09/11 01:23:37;;;;;;;;;;;13.00;99.90;;;;;;5060316;28;19923;-33
2022/09/11 01:26:21;;;;;;;;;;;13.10;99.90;;;;;;5054261;28;19916;-34
2022/09/11 01:29:02;;;;;;;;;;;13.10;99.90;;;;;;5049072;28;20286;-34
2022/09/11 01:31:32;;;;;;;;;;;13.00;99.90;;;;;;5054498;28;20266;-34
2022/09/11 01:34:01;;;;;;;;;;;13.00;99.90;;;;;;5054405;28;19921;-34
2022/09/11 01:36:30;;;;;;;;;;;13.10;99.90;;;;;;5054018;28;19916;-36
2022/09/11 01:39:03;;;;;;;;;;;13.00;99.90;;;;;;5040247;28;19923;-32
2022/09/11 01:41:28;;;;;;;;;;;13.10;99.90;;;;;;5056834;28;20281;-34
2022/09/11 01:43:57;;;;;;;;;;;13.10;99.90;;;;;;5053777;28;19917;-33
2022/09/11 01:46:24;;;;;;;;;;;13.10;99.90;;;;;;5053821;28;19920;-32
2022/09/11 01:48:54;;;;;;;;;;;13.10;99.90;;;;;;5064568;28;20109;-32
2022/09/11 01:51:23;;;;;;;;;;;13.10;99.90;;;;;;5043258;28;19924;-35
2022/09/11 01:53:50;;;;;;;;;;;13.10;99.90;;;;;;5054138;28;19956;-37
2022/09/11 01:56:19;;;;;;;;;;;13.10;99.90;;;;;;5053111;28;19916;-35
2022/09/11 01:58:45;;;;;;;;;;;13.10;99.90;;;;;;5050267;28;19916;-33
2022/09/11 02:01:15;;;;;;;;;;;13.00;99.90;;;;;;5053070;28;19916;-37
2022/09/11 02:03:46;;;;;;;;;;;13.00;99.90;;;;;;5041368;28;19923;-37
2022/09/11 02:06:23;;;;;;;;;;;13.00;99.90;;;;;;5050120;28;19916;-36
2022/09/11 02:08:50;;;;;;;;;;;13.00;99.90;;;;;;5046938;28;20400;-35
2022/09/11 02:11:16;;;;;;;;;;;13.10;99.90;;;;;;5053158;28;19920;-35
2022/09/11 02:13:48;;;;;;;;;;;13.10;99.90;;;;;;5053305;28;20410;-35
2022/09/11 02:16:38;;;;;;;;;;;13.10;99.90;;;;;;5052991;28;19981;-35
2022/09/11 02:19:05;;;;;;;;;;;13.10;99.90;;;;;;5049215;28;20266;-35
2022/09/11 02:21:31;;;;;;;;;;;13.10;99.90;;;;;;5053394;28;19921;-37
2022/09/11 02:23:57;;;;;;;;;;;13.00;99.90;;;;;;5052702;28;19916;-38
2022/09/11 02:26:24;;;;;;;;;;;13.10;99.90;;;;;;5052506;28;19943;-35
2022/09/11 02:28:50;;;;;;;;;;;13.10;99.90;;;;;;5052406;28;20050;-34
2022/09/11 02:31:18;;;;;;;;;;;13.10;99.90;;;;;;5052921;28;19962;-34
2022/09/11 02:33:45;;;;;;;;;;;13.10;99.90;;;;;;5052123;28;19924;-34
2022/09/11 02:36:26;;;;;;;;;;;13.10;99.90;;;;;;5052876;28;19967;-34
2022/09/11 02:39:07;;;;;;;;;;;13.10;99.90;;;;;;5051411;28;19920;-37
2022/09/11 02:41:51;;;;;;;;;;;13.10;99.90;;;;;;5053433;28;19968;-35
2022/09/11 02:44:35;;;;;;;;;;;13.10;99.90;;;;;;5054690;28;19922;-35
2022/09/11 02:47:20;;;;;;;;;;;13.00;99.90;;;;;;5057188;28;20273;-34
2022/09/11 02:49:56;;;;;;;;;;;13.00;99.90;;;;;;5049925;28;19920;-36
2022/09/11 02:52:23;;;;;;;;;;;13.00;99.90;;;;;;5056137;28;20365;-37
2022/09/11 02:54:53;;;;;;;;;;;13.00;99.90;;;;;;5056539;28;19920;-34
2022/09/11 02:57:28;;;;;;;;;;;13.00;99.90;;;;;;5056402;28;19917;-34
2022/09/11 02:59:59;;;;;;;;;;;12.90;99.90;;;;;;5050737;28;19923;-34
2022/09/11 03:02:26;;;;;;;;;;;12.90;99.90;;;;;;5056104;28;19916;-35
2022/09/11 03:04:52;;;;;;;;;;;12.90;99.90;;;;;;5039120;28;19917;-36
2022/09/11 03:07:17;;;;;;;;;;;12.90;99.90;;;;;;5056170;28;20026;-35
2022/09/11 03:09:43;;;;;;;;;;;12.80;99.90;;;;;;5055615;28;19927;-35
2022/09/11 03:12:09;;;;;;;;;;;12.80;99.90;;;;;;5055893;28;19942;-34
2022/09/11 03:14:35;;;;;;;;;;;12.80;99.90;;;;;;5055838;28;19916;-37
2022/09/11 03:17:01;;;;;;;;;;;12.80;99.90;;;;;;5055812;28;19916;-34
2022/09/11 03:19:27;;;;;;;;;;;12.80;99.90;;;;;;5048143;28;19917;-38
2022/09/11 03:21:52;;;;;;;;;;;12.80;99.90;;;;;;5055432;28;20011;-34
2022/09/11 03:24:18;;;;;;;;;;;12.80;99.90;;;;;;5055809;28;19963;-34
2022/09/11 03:26:44;;;;;;;;;;;12.80;99.90;;;;;;5055986;28;19917;-37
2022/09/11 03:29:09;;;;;;;;;;;12.70;99.90;;;;;;5055638;28;20408;-37
2022/09/11 03:31:35;;;;;;;;;;;12.70;99.90;;;;;;5039166;28;19938;-34
2022/09/11 03:34:01;;;;;;;;;;;12.70;99.90;;;;;;5055396;28;19916;-34
2022/09/11 03:36:26;;;;;;;;;;;12.70;99.90;;;;;;5055680;28;20010;-35
2022/09/11 03:38:53;;;;;;;;;;;12.70;99.90;;;;;;5055360;28;19920;-35
2022/09/11 03:41:20;;;;;;;;;;;12.70;99.90;;;;;;5055283;28;20384;-35
2022/09/11 03:43:46;;;;;;;;;;;12.60;99.90;;;;;;5055479;28;19916;-34
2022/09/11 03:46:11;;;;;;;;;;;12.60;99.90;;;;;;5055495;28;19966;-36
2022/09/11 03:48:37;;;;;;;;;;;12.60;99.90;;;;;;5055478;28;19950;-36
2022/09/11 03:51:04;;;;;;;;;;;12.50;99.90;;;;;;5055106;28;20316;-34
2022/09/11 03:53:31;;;;;;;;;;;12.50;99.90;;;;;;5055129;28;19924;-35
2022/09/11 03:55:57;;;;;;;;;;;12.40;99.90;;;;;;5053617;28;19923;-35
2022/09/11 03:58:23;;;;;;;;;;;12.40;99.90;;;;;;5048430;28;20327;-36
2022/09/11 04:00:49;;;;;;;;;;;12.40;99.90;;;;;;5055081;28;20004;-38
2022/09/11 04:03:15;;;;;;;;;;;12.30;99.90;;;;;;5054807;28;19923;-34
2022/09/11 04:05:42;;;;;;;;;;;12.30;99.90;;;;;;5038473;28;19916;-35
2022/09/11 04:08:10;;;;;;;;;;;12.30;99.90;;;;;;5051504;28;20007;-37
2022/09/11 04:10:37;;;;;;;;;;;12.30;99.90;;;;;;5046708;28;19916;-37
2022/09/11 04:13:03;;;;;;;;;;;12.30;99.90;;;;;;5054759;28;20050;-34
2022/09/11 04:15:28;;;;;;;;;;;12.30;99.90;;;;;;5054796;28;19981;-35
2022/09/11 04:17:54;;;;;;;;;;;12.30;99.90;;;;;;5054939;28;19916;-34
2022/09/11 04:20:19;;;;;;;;;;;12.30;99.90;;;;;;5054495;28;19916;-34
2022/09/11 04:22:45;;;;;;;;;;;12.30;99.90;;;;;;5050320;28;19924;-38
2022/09/11 04:25:11;;;;;;;;;;;12.30;99.90;;;;;;5054221;28;19918;-34
2022/09/11 04:27:36;;;;;;;;;;;12.20;99.90;;;;;;5054580;28;19924;-35
2022/09/11 04:30:03;;;;;;;;;;;12.20;99.90;;;;;;5054538;28;19920;-37
2022/09/11 04:32:28;;;;;;;;;;;12.10;99.90;;;;;;5054214;28;19999;-34
2022/09/11 04:34:54;;;;;;;;;;;12.10;99.90;;;;;;5054768;28;20421;-35
2022/09/11 04:37:20;;;;;;;;;;;12.10;99.90;;;;;;5054344;28;19999;-34
2022/09/11 04:39:47;;;;;;;;;;;12.10;99.90;;;;;;5054359;28;19916;-34
2022/09/11 04:42:13;;;;;;;;;;;12.10;99.90;;;;;;5054271;28;20286;-34
2022/09/11 04:44:39;;;;;;;;;;;12.10;99.90;;;;;;5054401;28;19923;-34
2022/09/11 04:47:05;;;;;;;;;;;12.10;99.90;;;;;;5037853;28;19920;-33
2022/09/11 04:49:31;;;;;;;;;;;12.10;99.90;;;;;;5054101;28;19920;-35
2022/09/11 04:52:01;;;;;;;;;;;12.10;99.90;;;;;;5051618;28;19939;-36
2022/09/11 04:54:27;;;;;;;;;;;12.10;99.90;;;;;;5052484;28;20270;-35
2022/09/11 04:56:53;;;;;;;;;;;12.00;99.90;;;;;;5053113;28;19969;-35
2022/09/11 04:59:21;;;;;;;;;;;12.00;99.90;;;;;;5053829;28;20003;-34
2022/09/11 05:01:47;;;;;;;;;;;12.00;99.90;;;;;;5051256;28;20286;-35
2022/09/11 05:04:13;;;;;;;;;;;12.00;99.90;;;;;;5050976;28;19923;-33
2022/09/11 05:06:38;;;;;;;;;;;12.00;99.90;;;;;;5052197;28;19920;-37
2022/09/11 05:09:06;;;;;;;;;;;12.00;99.90;;;;;;5041571;28;19927;-35
2022/09/11 05:11:32;;;;;;;;;;;11.90;99.90;;;;;;5053260;28;20427;-36
2022/09/11 05:13:58;;;;;;;;;;;11.90;99.90;;;;;;5053932;28;20305;-36
2022/09/11 05:16:26;;;;;;;;;;;11.90;99.90;;;;;;5053802;28;19916;-34
2022/09/11 05:18:52;;;;;;;;;;;11.90;99.90;;;;;;5053895;28;20369;-35
2022/09/11 05:21:18;;;;;;;;;;;11.90;99.90;;;;;;5053189;28;19916;-36
2022/09/11 05:23:47;;;;;;;;;;;11.90;99.90;;;;;;5053484;28;20444;-34
2022/09/11 05:26:14;;;;;;;;;;;11.90;99.90;;;;;;5047868;28;20210;-33
2022/09/11 05:28:40;;;;;;;;;;;11.80;99.90;;;;;;5052654;28;19921;-35
2022/09/11 05:31:10;;;;;;;;;;;11.90;99.90;;;;;;5049989;28;19916;-35
2022/09/11 05:33:35;;;;;;;;;;;11.90;99.90;;;;;;5045934;28;20374;-36
2022/09/11 05:36:03;;;;;;;;;;;11.90;99.90;;;;;;5052869;28;19963;-35
2022/09/11 05:38:29;;;;;;;;;;;11.90;99.90;;;;;;5044433;28;20432;-38
2022/09/11 05:40:54;;;;;;;;;;;11.90;99.90;;;;;;5034537;28;20007;-34
2022/09/11 05:43:20;;;;;;;;;;;11.90;99.90;;;;;;5050627;28;19916;-35
2022/09/11 05:45:56;;;;;;;;;;;11.90;99.90;;;;;;5044936;28;20594;-34
2022/09/11 05:48:21;;;;;;;;;;;12.00;99.90;;;;;;5043861;28;20370;-34
2022/09/11 05:50:51;;;;;;;;;;;12.00;99.90;;;;;;5038629;28;19928;-34
2022/09/11 05:53:17;;;;;;;;;;;12.00;99.90;;;;;;5061858;28;20339;-35
2022/09/11 05:55:42;;;;;;;;;;;12.00;99.90;;;;;;5040636;28;19916;-37
2022/09/11 05:58:08;;;;;;;;;;;12.00;99.90;;;;;;5047274;28;20018;-36
2022/09/11 06:00:34;;;;;;;;;;;12.10;99.90;;;;;;5046554;28;19925;-36
2022/09/11 06:03:00;;;;;;;;;;;12.10;99.90;;;;;;5049825;28;20370;-35
2022/09/11 06:05:25;;;;;;;;;;;12.20;99.90;;;;;;5043445;28;19958;-34
2022/09/11 06:07:51;;;;;;;;;;;12.20;99.90;;;;;;5033534;28;20262;-38
2022/09/11 06:10:16;;;;;;;;;;;12.30;99.90;;;;;;5059217;28;19971;-37
2022/09/11 06:12:42;;;;;;;;;;;12.30;99.90;;;;;;5042569;28;20001;-35
2022/09/11 06:15:08;;;;;;;;;;;12.40;99.90;;;;;;5050180;28;19924;-35
2022/09/11 06:17:33;;;;;;;;;;;12.40;99.90;;;;;;5046814;28;20434;-36
2022/09/11 06:20:00;;;;;;;;;;;12.50;99.90;;;;;;5031074;28;20374;-35
2022/09/11 06:22:28;;;;;;;;;;;12.50;99.90;;;;;;5049290;28;19924;-38
2022/09/11 06:24:54;;;;;;;;;;;12.60;99.90;;;;;;5053221;28;19924;-37
2022/09/11 06:27:19;;;;;;;;;;;12.70;99.90;;;;;;5050122;28;20297;-37
2022/09/11 06:29:45;;;;;;;;;;;12.70;99.90;;;;;;5048755;28;20293;-36
2022/09/11 06:32:11;;;;;;;;;;;12.70;99.90;;;;;;5049140;28;20343;-34
2022/09/11 06:34:36;;;;;;;;;;;12.80;99.90;;;;;;5055573;28;19977;-34
2022/09/11 06:37:02;;;;;;;;;;;12.80;99.90;;;;;;5051216;28;19916;-38
2022/09/11 06:39:28;;;;;;;;;;;12.90;99.90;;;;;;5043182;28;19926;-34
2022/09/11 06:41:57;;;;;;;;;;;12.90;99.90;;;;;;5051936;28;19916;-36
2022/09/11 06:44:26;;;;;;;;;;;13.00;99.90;;;;;;5053697;28;19981;-36
2022/09/11 06:46:51;;;;;;;;;;;13.00;99.90;;;;;;5044059;28;19924;-38
2022/09/11 06:49:17;;;;;;;;;;;13.10;99.90;;;;;;5048618;28;19929;-39
2022/09/11 06:51:43;;;;;;;;;;;13.10;99.90;;;;;;5051007;28;20388;-35
2022/09/11 06:54:08;;;;;;;;;;;13.30;99.90;;;;;;5046213;28;19920;-37
2022/09/11 06:56:34;;;;;;;;;;;13.40;99.90;;;;;;5044022;28;20288;-35
2022/09/11 06:59:00;;;;;;;;;;;13.40;99.90;;;;;;5047808;28;19995;-37
2022/09/11 07:01:27;;;;;;;;;;;13.50;99.90;;;;;;5047530;28;20015;-37
2022/09/11 07:03:53;;;;;;;;;;;13.60;99.90;;;;;;5045133;28;20032;-38
2022/09/11 07:06:20;;;;;;;;;;;13.70;99.90;;;;;;5046996;28;19916;-35
2022/09/11 07:08:54;;;;;;;;;;;13.80;99.90;;;;;;5052748;28;19943;-36
2022/09/11 07:11:20;;;;;;;;;;;13.90;99.90;;;;;;5044139;28;20034;-36
2022/09/11 07:13:46;;;;;;;;;;;14.00;99.90;;;;;;5048841;28;20285;-35
2022/09/11 07:16:12;;;;;;;;;;;14.00;99.90;;;;;;5055820;28;20285;-35
2022/09/11 07:18:41;;;;;;;;;;;14.10;99.90;;;;;;5041935;28;19916;-35
2022/09/11 07:21:10;;;;;;;;;;;14.20;99.90;;;;;;5055129;28;19920;-36
2022/09/11 07:23:35;;;;;;;;;;;14.30;99.90;;;;;;5055443;28;19923;-35
2022/09/11 07:26:06;;;;;;;;;;;14.40;99.90;;;;;;5055872;28;19916;-35
2022/09/11 07:28:32;;;;;;;;;;;14.60;99.90;;;;;;5055138;28;19920;-37
2022/09/11 07:31:06;;;;;;;;;;;14.70;99.90;;;;;;5055116;28;19938;-37
2022/09/11 07:33:33;;;;;;;;;;;14.80;99.90;;;;;;5052670;28;19921;-36
2022/09/11 07:35:59;;;;;;;;;;;14.90;99.90;;;;;;5029248;28;19917;-35
2022/09/11 07:38:28;;;;;;;;;;;15.00;99.90;;;;;;5051114;28;19924;-38
2022/09/11 07:40:54;;;;;;;;;;;15.20;99.90;;;;;;5043945;28;19920;-36
2022/09/11 07:43:20;;;;;;;;;;;15.30;99.90;;;;;;5046356;28;20290;-36
2022/09/11 07:45:45;;;;;;;;;;;15.50;99.90;;;;;;5049928;28;19924;-37
2022/09/11 07:48:12;;;;;;;;;;;15.70;99.90;;;;;;5053528;28;19920;-38
2022/09/11 07:50:37;;;;;;;;;;;15.90;99.90;;;;;;5051843;28;19916;-36
2022/09/11 07:53:03;;;;;;;;;;;16.20;99.90;;;;;;5050526;28;20302;-36
2022/09/11 07:55:29;;;;;;;;;;;16.50;99.90;;;;;;5046101;28;19960;-37
2022/09/11 07:57:55;;;;;;;;;;;16.80;99.90;;;;;;5047340;28;19975;-35
2022/09/11 08:00:20;;;;;;;;;;;17.10;99.90;;;;;;5045170;28;19960;-36
2022/09/11 08:02:47;;;;;;;;;;;17.40;99.90;;;;;;5043138;28;19960;-36
2022/09/11 08:05:14;;;;;;;;;;;17.70;99.90;;;;;;5044411;28;19924;-37
2022/09/11 08:07:40;;;;;;;;;;;18.00;99.90;;;;;;5051664;28;19960;-37
2022/09/11 08:10:07;;;;;;;;;;;18.30;99.90;;;;;;5053738;28;20374;-38
2022/09/11 08:12:33;;;;;;;;;;;18.40;99.90;;;;;;5054415;28;19956;-36
2022/09/11 08:14:59;;;;;;;;;;;18.80;99.90;;;;;;5054107;28;19973;-39
2022/09/11 08:17:24;;;;;;;;;;;19.00;99.90;;;;;;5054948;28;19920;-36
2022/09/11 08:19:50;;;;;;;;;;;19.20;99.90;;;;;;5054428;28;19920;-38
2022/09/11 08:22:16;;;;;;;;;;;19.50;99.90;;;;;;5054444;28;19952;-36
2022/09/11 08:24:42;;;;;;;;;;;19.70;99.90;;;;;;5052029;28;20050;-35
2022/09/11 08:27:08;;;;;;;;;;;20.00;99.90;;;;;;5047587;28;20044;-36
2022/09/11 08:29:33;;;;;;;;;;;20.20;99.90;;;;;;5054455;28;19979;-36
2022/09/11 08:31:59;;;;;;;;;;;20.50;99.90;;;;;;5054081;28;19916;-37
2022/09/11 08:34:25;;;;;;;;;;;20.90;99.90;;;;;;5054411;28;19917;-36
2022/09/11 08:36:50;;;;;;;;;;;21.30;99.90;;;;;;5054513;28;20062;-40
2022/09/11 08:39:16;;;;;;;;;;;21.50;99.90;;;;;;5054135;28;19916;-37
2022/09/11 08:41:42;;;;;;;;;;;21.80;99.90;;;;;;5051642;28;19924;-36
2022/09/11 08:44:07;;;;;;;;;;;21.90;99.90;;;;;;5051451;28;19924;-36
2022/09/11 08:46:35;;;;;;;;;;;22.20;99.90;;;;;;5052326;28;19917;-39
2022/09/11 08:49:05;;;;;;;;;;;22.60;99.90;;;;;;5053819;28;19927;-36
2022/09/11 08:51:33;;;;;;;;;;;22.90;99.90;;;;;;5041149;28;19931;-37
2022/09/11 08:54:00;;;;;;;;;;;22.80;99.90;;;;;;5051433;28;19921;-37
2022/09/11 08:56:28;;;;;;;;;;;22.90;99.90;;;;;;5048109;28;19939;-39
2022/09/11 08:59:13;;;;;;;;;;;23.30;99.90;;;;;;5051867;28;20374;-38
2022/09/11 09:01:45;;;;;;;;;;;23.70;99.90;;;;;;5051722;28;19974;-38
2022/09/11 09:04:40;;;;;;;;;;;24.10;99.90;;;;;;5052141;28;19939;-40
2022/09/11 09:07:17;;;;;;;;;;;24.20;99.90;;;;;;5041072;28;19917;-37
2022/09/11 09:09:52;;;;;;;;;;;24.40;99.90;;;;;;5053234;28;19920;-38
2022/09/11 09:12:31;;;;;;;;;;;24.40;99.90;;;;;;5054299;28;19923;-39
2022/09/11 09:15:12;;;;;;;;;;;24.20;99.90;;;;;;5054483;28;19968;-40
2022/09/11 09:17:52;;;;;;;;;;;23.80;99.90;;;;;;5055288;28;19927;-33
2022/09/11 09:20:22;;;;;;;;;;;23.30;99.90;;;;;;5055201;28;20397;-34
2022/09/11 09:22:53;;;;;;;;;;;22.70;99.90;;;;;;5054639;28;19916;-34
2022/09/11 09:25:21;;;;;;;;;;;22.20;99.90;;;;;;5054483;28;19920;-35
2022/09/11 09:27:48;;;;;;;;;;;21.80;99.90;;;;;;5054443;28;19923;-35
2022/09/11 09:30:15;;;;;;;;;;;21.60;99.90;;;;;;5054557;28;19920;-34
2022/09/11 09:33:01;;;;;;;;;;;21.30;99.90;;;;;;5054358;28;19924;-33
2022/09/11 09:35:38;;;;;;;;;;;21.40;99.90;;;;;;5055281;28;19942;-33
2022/09/11 09:38:14;;;;;;;;;;;22.30;99.90;;;;;;5054431;28;19916;-34
2022/09/11 09:40:50;;;;;;;;;;;23.20;99.90;;;;;;5054436;28;19923;-34
2022/09/11 09:43:18;;;;;;;;;;;23.80;99.90;;;;;;5054353;28;19920;-34
2022/09/11 09:45:47;;;;;;;;;;;24.40;99.90;;;;;;5087737;28;19963;-34
2022/09/11 09:48:13;;;;;;;;;;;25.00;99.90;;;;;;5087972;28;19923;-34
2022/09/11 09:50:40;;;;;;;;;;;25.30;99.90;;;;;;5053981;28;20425;-34
2022/09/11 09:53:26;;;;;;;;;;;25.40;99.90;;;;;;5055186;28;19974;-34
2022/09/11 09:55:53;;;;;;;;;;;25.40;99.90;;;;;;5058197;28;19916;-35
2022/09/11 09:58:22;;;;;;;;;;;25.00;99.90;;;;;;5058365;28;19921;-35
2022/09/11 10:00:47;;;;;;;;;;;24.60;99.90;;;;;;5058279;28;19922;-34
2022/09/11 10:03:18;;;;;;;;;;;24.20;99.90;;;;;;5058061;28;19920;-35
2022/09/11 10:05:44;;;;;;;;;;;24.00;99.90;;;;;;5058368;28;19939;-34
2022/09/11 10:08:24;;;;;;;;;;;23.60;99.90;;;;;;5058151;28;20361;-35
2022/09/11 10:10:57;;;;;;;;;;;23.20;99.90;;;;;;5091841;28;19916;-35
2022/09/11 10:13:24;;;;;;;;;;;22.90;99.90;;;;;;5057805;28;19916;-34
2022/09/11 10:15:51;;;;;;;;;;;22.50;99.90;;;;;;5057828;28;19917;-34
2022/09/11 10:18:29;;;;;;;;;;;22.20;99.90;;;;;;5075955;28;19939;-33
2022/09/11 10:21:24;;;;;;;;;;;21.80;99.90;;;;;;5075039;28;19916;-34
2022/09/11 10:23:57;;;;;;;;;;;21.70;99.90;;;;;;5053162;28;19923;-34
2022/09/11 10:26:33;;;;;;;;;;;21.50;99.90;;;;;;5058000;28;20025;-34
2022/09/11 10:29:20;;;;;;;;;;;21.40;99.90;;;;;;5057776;28;19921;-34
2022/09/11 10:31:49;;;;;;;;;;;21.30;99.90;;;;;;5057359;28;20340;-34
2022/09/11 10:34:18;;;;;;;;;;;21.10;99.90;;;;;;5057408;28;19917;-34
2022/09/11 10:36:52;;;;;;;;;;;21.10;99.90;;;;;;5057573;28;19920;-34
2022/09/11 10:39:18;;;;;;;;;;;21.10;99.90;;;;;;5057399;28;19916;-34
2022/09/11 10:41:47;;;;;;;;;;;21.10;99.90;;;;;;5057625;28;19916;-34
2022/09/11 10:44:14;;;;;;;;;;;21.20;99.90;;;;;;5057009;28;19921;-34
2022/09/11 10:46:44;;;;;;;;;;;21.30;99.90;;;;;;5075076;28;19923;-34
2022/09/11 10:49:10;;;;;;;;;;;22.20;99.90;;;;;;5057199;28;19920;-34
2022/09/11 10:51:37;;;;;;;;;;;23.00;99.90;;;;;;5090857;28;19923;-34
2022/09/11 10:54:12;;;;;;;;;;;23.10;99.90;;;;;;5057444;28;20413;-34
2022/09/11 10:56:59;;;;;;;;;;;23.30;99.90;;;;;;5090605;28;19946;-34
2022/09/11 10:59:39;;;;;;;;;;;23.30;99.90;;;;;;5057034;28;20359;-34
2022/09/11 11:02:17;;;;;;;;;;;23.10;99.90;;;;;;5090716;28;19916;-34
2022/09/11 11:04:42;;;;;;;;;;;22.90;99.90;;;;;;5072472;28;20003;-33
2022/09/11 11:07:35;;;;;;;;;;;22.50;99.90;;;;;;5057220;28;20011;-33
2022/09/11 11:10:15;;;;;;;;;;;22.40;99.90;;;;;;5048929;28;19928;-34
2022/09/11 11:13:05;;;;;;;;;;;22.10;99.90;;;;;;5056990;28;19916;-34
2022/09/11 11:15:30;;;;;;;;;;;21.90;99.90;;;;;;5054033;28;19959;-35
2022/09/11 11:18:10;;;;;;;;;;;21.70;99.90;;;;;;5090468;28;20342;-34
2022/09/11 11:20:44;;;;;;;;;;;21.40;99.90;;;;;;5074650;28;19923;-34
2022/09/11 11:23:23;;;;;;;;;;;21.30;99.90;;;;;;5056459;28;19999;-34
2022/09/11 11:26:08;;;;;;;;;;;21.10;99.90;;;;;;5056256;28;19921;-33
2022/09/11 11:28:36;;;;;;;;;;;21.10;99.90;;;;;;5056070;28;19927;-33
2022/09/11 11:31:08;;;;;;;;;;;20.90;99.90;;;;;;5090089;28;19942;-35
2022/09/11 11:33:53;;;;;;;;;;;20.80;99.90;;;;;;5090083;28;20017;-34
2022/09/11 11:36:39;;;;;;;;;;;20.70;99.90;;;;;;5056600;28;20346;-34
2022/09/11 11:39:23;;;;;;;;;;;20.60;99.90;;;;;;5055933;28;19916;-34
2022/09/11 11:42:02;;;;;;;;;;;20.50;99.90;;;;;;5089880;28;19921;-33
2022/09/11 11:44:35;;;;;;;;;;;20.60;99.90;;;;;;5056224;28;19916;-35
2022/09/11 11:47:03;;;;;;;;;;;20.70;99.90;;;;;;5056034;28;19916;-34
2022/09/11 11:49:49;;;;;;;;;;;20.80;99.90;;;;;;5055879;28;20042;-33
2022/09/11 11:52:17;;;;;;;;;;;21.80;99.90;;;;;;5056917;28;19916;-33
2022/09/11 11:55:07;;;;;;;;;;;23.00;99.90;;;;;;5064300;28;19923;-37
2022/09/11 11:57:36;;;;;;;;;;;24.10;99.90;;;;;;5033288;28;19947;-39
2022/09/11 12:00:09;;;;;;;;;;;25.00;99.90;;;;;;5039676;28;19916;-37
2022/09/11 12:02:42;;;;;;;;;;;25.70;99.90;;;;;;5030541;28;19917;-39
2022/09/11 12:05:29;;;;;;;;;;;26.30;99.90;;;;;;5062785;28;19916;-37
2022/09/11 12:07:55;;;;;;;;;;;26.70;99.90;;;;;;5048666;28;19921;-36
2022/09/11 12:10:29;;;;;;;;;;;27.50;99.90;;;;;;5041918;28;19942;-36
2022/09/11 12:12:58;;;;;;;;;;;27.80;99.00;;;;;;5053969;28;20419;-34
2022/09/11 12:15:27;;;;;;;;;;;28.20;90.50;;;;;;5045509;28;20357;-34
2022/09/11 12:17:59;;;;;;;;;;;28.70;94.60;;;;;;5041574;28;19947;-35
2022/09/11 12:20:39;;;;;;;;;;;28.80;68.20;;;;;;5051515;28;19965;-32
2022/09/11 12:23:26;;;;;;;;;;;28.90;86.40;;;;;;5045700;28;19925;-35
2022/09/11 12:26:02;;;;;;;;;;;29.30;81.80;;;;;;5059106;28;19966;-34
2022/09/11 12:28:28;;;;;;;;;;;29.10;75.20;;;;;;5039853;28;19921;-35
2022/09/11 12:31:00;;;;;;;;;;;29.40;74.70;;;;;;5047999;28;19927;-35
2022/09/11 12:33:47;;;;;;;;;;;30.30;75.20;;;;;;5042252;28;20364;-34
2022/09/11 12:36:15;;;;;;;;;;;30.60;64.90;;;;;;5047195;28;19916;-34
2022/09/11 12:38:46;;;;;;;;;;;31.20;57.50;;;;;;5052262;28;20317;-33
2022/09/11 12:41:13;;;;;;;;;;;31.60;59.30;;;;;;5051984;28;19924;-34
2022/09/11 12:43:40;;;;;;;;;;;31.80;58.80;;;;;;5042725;28;19920;-34
2022/09/11 12:46:21;;;;;;;;;;;32.00;57.90;;;;;;5048452;28;19916;-34
2022/09/11 12:48:51;;;;;;;;;;;32.40;55.00;;;;;;5043260;28;20375;-34
2022/09/11 12:51:22;;;;;;;;;;;32.00;50.70;;;;;;5043169;28;19920;-35
2022/09/11 12:53:51;;;;;;;;;;;30.90;52.10;;;;;;5049419;28;19920;-32
2022/09/11 12:56:23;;;;;;;;;;;30.00;56.50;;;;;;5062568;28;20376;-34
2022/09/11 12:58:54;;;;;;;;;;;29.10;58.70;;;;;;5046057;28;19933;-32
2022/09/11 13:01:23;;;;;;;;;;;28.70;69.20;;;;;;5052448;28;19920;-34
2022/09/11 13:03:49;;;;;;;;;;;27.80;68.00;;;;;;5044078;28;20370;-33
2022/09/11 13:06:15;;;;;;;;;;;27.30;75.10;;;;;;5046956;28;19924;-34
2022/09/11 13:08:46;;;;;;;;;;;26.90;81.10;;;;;;5045440;28;19924;-33
2022/09/11 13:11:31;;;;;;;;;;;26.50;80.00;;;;;;5044576;28;20390;-34
2022/09/11 13:13:57;;;;;;;;;;;25.90;87.30;;;;;;5049311;28;19987;-33
2022/09/11 13:16:24;;;;;;;;;;;25.70;93.40;;;;;;5060577;28;20396;-34
2022/09/11 13:18:52;;;;;;;;;;;25.40;97.80;;;;;;5067567;28;19916;-34
2022/09/11 13:21:18;;;;;;;;;;;25.20;99.90;;;;;;5049443;28;20014;-33
2022/09/11 13:23:47;;;;;;;;;;;25.00;99.80;;;;;;5053674;28;20051;-36
2022/09/11 13:26:23;;;;;;;;;;;24.80;99.90;;;;;;5049834;28;19917;-33
2022/09/11 13:28:53;;;;;;;;;;;24.50;99.90;;;;;;5054857;28;20297;-32
2022/09/11 13:31:26;;;;;;;;;;;24.40;99.90;;;;;;5045092;28;19924;-34
2022/09/11 13:33:52;;;;;;;;;;;24.30;99.90;;;;;;5052161;28;19950;-34
2022/09/11 13:36:19;;;;;;;;;;;24.20;99.90;;;;;;5051703;28;20015;-31
2022/09/11 13:38:49;;;;;;;;;;;24.10;99.90;;;;;;5051178;28;19916;-33
2022/09/11 13:41:17;;;;;;;;;;;24.00;99.90;;;;;;5051528;28;19923;-34
2022/09/11 13:43:44;;;;;;;;;;;23.80;99.90;;;;;;5051697;28;19922;-34
2022/09/11 13:46:15;;;;;;;;;;;23.60;99.90;;;;;;5055312;28;19932;-34
2022/09/11 13:48:42;;;;;;;;;;;23.50;99.90;;;;;;5051309;28;19920;-35
2022/09/11 13:51:11;;;;;;;;;;;23.40;99.90;;;;;;5052636;28;20285;-32
2022/09/11 13:53:37;;;;;;;;;;;23.30;99.90;;;;;;5043459;28;19965;-31
2022/09/11 13:56:03;;;;;;;;;;;23.20;99.90;;;;;;5053318;28;20348;-33
2022/09/11 13:58:34;;;;;;;;;;;23.00;99.90;;;;;;5053306;28;20377;-34
2022/09/11 14:01:10;;;;;;;;;;;22.90;99.90;;;;;;5059973;28;19966;-33
2022/09/11 14:03:37;;;;;;;;;;;22.70;99.90;;;;;;5047594;28;19923;-34
2022/09/11 14:06:08;;;;;;;;;;;22.70;99.90;;;;;;5052985;28;19917;-33
2022/09/11 14:08:39;;;;;;;;;;;22.60;99.90;;;;;;5060376;28;19923;-32
2022/09/11 14:11:05;;;;;;;;;;;22.60;99.90;;;;;;5049720;28;19917;-33
2022/09/11 14:13:52;;;;;;;;;;;22.60;99.90;;;;;;5050110;28;19924;-34
2022/09/11 14:16:24;;;;;;;;;;;22.60;99.90;;;;;;5048425;28;20386;-31
2022/09/11 14:19:10;;;;;;;;;;;22.70;99.90;;;;;;5052778;28;19935;-34
2022/09/11 14:21:36;;;;;;;;;;;22.70;99.90;;;;;;5053407;28;19917;-31
2022/09/11 14:24:06;;;;;;;;;;;22.80;99.90;;;;;;5056161;28;19917;-31
2022/09/11 14:26:33;;;;;;;;;;;22.90;99.90;;;;;;5054343;28;20309;-32
2022/09/11 14:29:21;;;;;;;;;;;22.90;99.90;;;;;;5050113;28;19924;-32
2022/09/11 14:31:47;;;;;;;;;;;23.00;99.90;;;;;;5062048;28;19916;-32